createdAt,value
2023-05-11T00:02:02.081Z,100735.78
2023-05-11T00:04:29.839Z,100739.31
2023-05-11T00:06:57.370Z,100733.63
2023-05-11T00:09:24.962Z,100736.66
2023-05-11T00:11:53.128Z,100736.66
2023-05-11T00:14:20.797Z,100731.47
2023-05-11T00:16:48.589Z,100741.63
2023-05-11T00:19:16.575Z,100737.25
2023-05-11T00:21:44.050Z,100741.91
2023-05-11T00:24:11.794Z,100743.03
2023-05-11T00:26:39.454Z,100748.81
2023-05-11T00:29:07.009Z,100741.16
2023-05-11T00:31:34.670Z,100743.16
2023-05-11T00:34:02.226Z,100748.41
2023-05-11T00:36:29.951Z,100744.88
2023-05-11T00:38:57.424Z,100749.53
2023-05-11T00:41:25.433Z,100748.69
2023-05-11T00:43:53.178Z,100746.25
2023-05-11T00:46:20.896Z,100740.75
2023-05-11T00:48:48.662Z,100739.13
2023-05-11T00:51:16.211Z,100739.97
2023-05-11T00:53:43.827Z,100741.38
2023-05-11T00:56:11.525Z,100739.75
2023-05-11T00:58:39.249Z,100739.25
2023-05-11T01:01:06.838Z,100744.72
2023-05-11T01:03:34.743Z,100743.09
2023-05-11T01:06:10.648Z,100751.88
2023-05-11T01:08:57.031Z,100746.47
2023-05-11T01:11:37.365Z,100736.69
2023-05-11T01:14:16.772Z,100741.69
2023-05-11T01:16:47.332Z,100740.63
2023-05-11T01:19:39.679Z,100743.44
2023-05-11T01:22:28.996Z,100740.75
2023-05-11T01:25:07.733Z,100750.03
2023-05-11T01:27:48.798Z,100745.63
2023-05-11T01:30:31.847Z,100751.69
2023-05-11T01:33:00.905Z,100745.97
2023-05-11T01:35:28.739Z,100745.16
2023-05-11T01:37:57.769Z,100743.53
2023-05-11T01:40:27.883Z,100745.75
2023-05-11T01:43:01.555Z,100745.75
2023-05-11T01:45:29.525Z,100744.94
2023-05-11T01:47:57.390Z,100744.13
2023-05-11T01:50:25.036Z,100746.31
2023-05-11T01:52:53.225Z,100744.44
2023-05-11T01:55:22.388Z,100742.28
2023-05-11T01:57:53.097Z,100737.09
2023-05-11T02:00:21.185Z,100738.75
2023-05-11T02:02:49.393Z,100747.25
2023-05-11T02:05:19.768Z,100735.75
2023-05-11T02:07:49.086Z,100743.97
2023-05-11T02:10:17.083Z,100747.25
2023-05-11T02:12:44.874Z,100744.50
2023-05-11T02:15:12.570Z,100743.41
2023-05-11T02:17:41.395Z,100735.19
2023-05-11T02:20:09.330Z,100741.50
2023-05-11T02:22:36.928Z,100741.22
2023-05-11T02:25:05.024Z,100739.03
2023-05-11T02:27:35.990Z,100736.53
2023-05-11T02:30:04.657Z,100743.63
2023-05-11T02:32:33.999Z,100740.88
2023-05-11T02:35:05.035Z,100743.63
2023-05-11T02:37:33.863Z,100737.88
2023-05-11T02:40:05.297Z,100744.72
2023-05-11T02:42:37.680Z,100745.84
2023-05-11T02:45:07.362Z,100750.22
2023-05-11T02:47:54.853Z,100749.69
2023-05-11T02:50:25.648Z,100767.16
2023-05-11T02:52:55.034Z,100756.78
2023-05-11T02:55:22.776Z,100754.63
2023-05-11T02:57:50.516Z,100757.91
2023-05-11T03:00:18.600Z,100756.78
2023-05-11T03:02:47.908Z,100755.16
2023-05-11T03:05:18.271Z,100757.91
2023-05-11T03:07:47.239Z,100756.22
2023-05-11T03:10:14.717Z,100761.38
2023-05-11T03:12:44.489Z,100757.03
2023-05-11T03:15:12.653Z,100758.41
2023-05-11T03:17:43.272Z,100759.56
2023-05-11T03:20:14.002Z,100754.66
2023-05-11T03:22:41.700Z,100761.75
2023-05-11T03:25:09.592Z,100762.81
2023-05-11T03:27:37.218Z,100758.41
2023-05-11T03:30:09.856Z,100764.44
2023-05-11T03:32:42.175Z,100766.56
2023-05-11T03:35:09.912Z,100763.78
2023-05-11T03:37:38.256Z,100770.84
2023-05-11T03:40:08.199Z,100766.47
2023-05-11T03:42:45.943Z,100778.22
2023-05-11T03:45:14.041Z,100776.84
2023-05-11T03:47:41.761Z,100772.47
2023-05-11T03:50:10.646Z,100769.75
2023-05-11T03:52:39.186Z,100776.84
2023-05-11T03:55:07.620Z,100776.84
2023-05-11T03:57:35.327Z,100772.19
2023-05-11T04:00:02.933Z,100778.44
2023-05-11T04:02:34.659Z,100774.03
2023-05-11T04:05:09.729Z,100775.09
2023-05-11T04:07:38.102Z,100780.00
2023-05-11T04:10:06.731Z,100773.06
2023-05-11T04:12:34.530Z,100775.69
2023-05-11T04:15:02.295Z,100776.75
2023-05-11T04:17:30.658Z,100777.78
2023-05-11T04:19:58.370Z,100781.34
2023-05-11T04:22:25.910Z,100776.34
2023-05-11T04:24:53.385Z,100775.72
2023-05-11T04:27:20.992Z,100780.13
2023-05-11T04:29:48.806Z,100783.88
2023-05-11T04:32:17.996Z,100786.56
2023-05-11T04:34:46.192Z,100780.13
2023-05-11T04:37:14.064Z,100786.31
2023-05-11T04:39:43.312Z,100782.00
2023-05-11T04:42:11.206Z,100780.78
2023-05-11T04:44:39.443Z,100784.25
2023-05-11T04:47:07.847Z,100777.00
2023-05-11T04:49:35.951Z,100777.13
2023-05-11T04:52:03.764Z,100778.91
2023-05-11T04:54:31.736Z,100779.94
2023-05-11T04:56:59.554Z,100778.75
2023-05-11T04:59:27.130Z,100778.75
2023-05-11T05:01:54.954Z,100775.91
2023-05-11T05:04:22.730Z,100782.44
2023-05-11T05:06:50.406Z,100780.22
2023-05-11T05:09:18.335Z,100783.38
2023-05-11T05:11:45.981Z,100781.66
2023-05-11T05:14:13.681Z,100780.47
2023-05-11T05:16:41.768Z,100779.28
2023-05-11T05:19:10.287Z,100782.47
2023-05-11T05:21:37.865Z,100774.66
2023-05-11T05:24:06.935Z,100777.31
2023-05-11T05:26:34.455Z,100778.22
2023-05-11T05:29:02.764Z,100783.03
2023-05-11T05:31:30.880Z,100778.56
2023-05-11T05:33:58.913Z,100776.34
2023-05-11T05:36:26.486Z,100777.38
2023-05-11T05:38:53.997Z,100787.13
2023-05-11T05:41:23.171Z,100775.53
2023-05-11T05:43:52.136Z,100778.78
2023-05-11T05:46:20.493Z,100775.31
2023-05-11T05:48:48.104Z,100775.72
2023-05-11T05:51:16.474Z,100771.47
2023-05-11T05:53:44.894Z,100775.41
2023-05-11T05:56:12.520Z,100786.19
2023-05-11T05:58:40.097Z,100779.56
2023-05-11T06:01:07.630Z,100782.22
2023-05-11T06:03:35.836Z,100779.16
2023-05-11T06:06:04.405Z,100782.63
2023-05-11T06:08:32.998Z,100782.72
2023-05-11T06:11:01.150Z,100777.88
2023-05-11T06:13:29.128Z,100780.53
2023-05-11T06:15:57.697Z,100778.19
2023-05-11T06:18:30.133Z,100779.06
2023-05-11T06:20:59.372Z,100781.09
2023-05-11T06:23:28.587Z,100780.84
2023-05-11T06:25:56.325Z,100786.16
2023-05-11T06:28:24.929Z,100777.44
2023-05-11T06:31:00.142Z,100783.50
2023-05-11T06:33:31.293Z,100787.63
2023-05-11T06:35:59.568Z,100788.97
2023-05-11T06:38:29.830Z,100778.97
2023-05-11T06:40:57.496Z,100777.72
2023-05-11T06:43:25.065Z,100789.91
2023-05-11T06:45:53.868Z,100773.41
2023-05-11T06:48:23.616Z,100776.38
2023-05-11T06:50:51.647Z,100775.09
2023-05-11T06:53:19.187Z,100781.13
2023-05-11T06:55:47.292Z,100773.69
2023-05-11T06:58:14.904Z,100772.34
2023-05-11T07:00:42.801Z,100773.97
2023-05-11T07:03:10.424Z,100769.59
2023-05-11T07:05:39.166Z,100771.41
2023-05-11T07:08:06.760Z,100771.75
2023-05-11T07:10:34.283Z,100774.50
2023-05-11T07:13:02.272Z,100772.59
2023-05-11T07:15:29.860Z,100764.47
2023-05-11T07:17:57.452Z,100770.16
2023-05-11T07:20:25.268Z,100773.41
2023-05-11T07:22:56.012Z,100771.63
2023-05-11T07:25:23.927Z,100771.47
2023-05-11T07:27:51.408Z,100768.84
2023-05-11T07:30:19.131Z,100767.25
2023-05-11T07:32:47.020Z,100770.66
2023-05-11T07:35:15.354Z,100777.16
2023-05-11T07:37:43.229Z,100771.81
2023-05-11T07:40:11.288Z,100779.59
2023-05-11T07:42:39.210Z,100780.09
2023-05-11T07:45:07.324Z,100773.41
2023-05-11T07:47:36.961Z,100772.94
2023-05-11T07:50:05.347Z,100776.50
2023-05-11T07:52:33.536Z,100773.09
2023-05-11T07:55:01.185Z,100773.91
2023-05-11T07:57:28.746Z,100771.94
2023-05-11T07:59:56.261Z,100766.59
2023-05-11T08:02:24.031Z,100766.94
2023-05-11T08:04:51.897Z,100768.38
2023-05-11T08:07:19.384Z,100765.63
2023-05-11T08:09:46.948Z,100764.00
2023-05-11T08:12:15.420Z,100761.72
2023-05-11T08:14:43.343Z,100767.41
2023-05-11T08:17:11.049Z,100757.81
2023-05-11T08:19:38.679Z,100756.00
2023-05-11T08:22:06.222Z,100755.50
2023-05-11T08:24:33.773Z,100764.41
2023-05-11T08:27:01.460Z,100759.84
2023-05-11T08:29:29.063Z,100758.69
2023-05-11T08:31:56.772Z,100758.47
2023-05-11T08:34:24.762Z,100760.69
2023-05-11T08:36:53.327Z,100755.22
2023-05-11T08:39:38.995Z,100757.31
2023-05-11T08:42:09.656Z,100758.25
2023-05-11T08:44:37.958Z,100756.31
2023-05-11T08:47:22.037Z,100763.84
2023-05-11T08:49:54.055Z,100761.59
2023-05-11T08:52:21.606Z,100761.94
2023-05-11T08:54:49.121Z,100762.44
2023-05-11T08:57:16.697Z,100767.47
2023-05-11T08:59:45.601Z,100761.91
2023-05-11T09:02:16.586Z,100757.13
2023-05-11T09:04:48.914Z,100760.56
2023-05-11T09:07:19.799Z,100756.97
2023-05-11T09:09:47.714Z,100756.25
2023-05-11T09:12:16.117Z,100758.63
2023-05-11T09:14:43.791Z,100760.84
2023-05-11T09:17:11.514Z,100756.47
2023-05-11T09:19:57.148Z,100749.66
2023-05-11T09:22:24.939Z,100752.69
2023-05-11T09:24:52.802Z,100750.19
2023-05-11T09:27:21.615Z,100750.72
2023-05-11T09:29:52.225Z,100746.66
2023-05-11T09:32:19.918Z,100750.91
2023-05-11T09:34:47.957Z,100748.81
2023-05-11T09:37:17.567Z,100755.50
2023-05-11T09:40:14.182Z,100747.19
2023-05-11T09:42:33.173Z,100754.34
2023-05-11T09:45:00.698Z,100744.88
2023-05-11T09:47:30.517Z,100738.69
2023-05-11T09:49:58.126Z,100737.53
2023-05-11T09:52:25.568Z,100735.25
2023-05-11T09:54:53.117Z,100735.34
2023-05-11T09:57:27.785Z,100738.56
2023-05-11T09:59:55.738Z,100733.44
2023-05-11T10:02:27.620Z,100747.75
2023-05-11T10:04:58.637Z,100746.00
2023-05-11T10:07:35.702Z,100752.19
2023-05-11T10:10:07.686Z,100746.38
2023-05-11T10:12:38.526Z,100738.75
2023-05-11T10:15:08.000Z,100741.19
2023-05-11T10:17:35.828Z,100748.00
2023-05-11T10:20:04.579Z,100748.97
2023-05-11T10:22:32.939Z,100746.78
2023-05-11T10:25:00.581Z,100737.16
2023-05-11T10:27:28.702Z,100747.38
2023-05-11T10:29:57.167Z,100745.34
2023-05-11T10:32:24.903Z,100737.97
2023-05-11T10:34:52.700Z,100736.56
2023-05-11T10:37:21.372Z,100740.00
2023-05-11T10:39:50.670Z,100740.00
2023-05-11T10:42:38.954Z,100738.88
2023-05-11T10:45:34.378Z,100739.72
2023-05-11T10:48:14.342Z,100740.31
2023-05-11T10:50:57.222Z,100739.72
2023-05-11T10:53:46.847Z,100738.03
2023-05-11T10:56:42.830Z,100745.59
2023-05-11T10:59:22.734Z,100738.38
2023-05-11T11:01:52.424Z,100744.66
2023-05-11T11:04:21.052Z,100743.94
2023-05-11T11:06:49.884Z,100741.03
2023-05-11T11:09:17.687Z,100743.25
2023-05-11T11:11:46.695Z,100748.25
2023-05-11T11:14:15.140Z,100743.84
2023-05-11T11:17:14.619Z,100739.81
2023-05-11T11:19:42.538Z,100740.97
2023-05-11T11:22:36.024Z,100741.19
2023-05-11T11:25:07.268Z,100735.09
2023-05-11T11:27:45.375Z,100739.13
2023-05-11T11:30:28.542Z,100740.22
2023-05-11T11:33:08.169Z,100732.81
2023-05-11T11:35:42.026Z,100735.84
2023-05-11T11:38:11.115Z,100724.28
2023-05-11T11:40:47.175Z,100727.75
2023-05-11T11:43:25.966Z,100730.91
2023-05-11T11:45:56.551Z,100724.75
2023-05-11T11:48:30.490Z,100727.28
2023-05-11T11:51:11.509Z,100727.97
2023-05-11T11:53:43.795Z,100725.91
2023-05-11T11:56:14.332Z,100716.41
2023-05-11T11:58:41.916Z,100715.50
2023-05-11T12:01:10.515Z,100712.50
2023-05-11T12:03:38.436Z,100719.56
2023-05-11T12:06:09.230Z,100706.13
2023-05-11T12:08:38.249Z,100705.22
2023-05-11T12:11:06.553Z,100713.19
2023-05-11T12:13:34.695Z,100707.06
2023-05-11T12:16:08.329Z,100704.06
2023-05-11T12:18:36.390Z,100709.72
2023-05-11T12:21:04.091Z,100713.84
2023-05-11T12:23:32.380Z,100708.09
2023-05-11T12:26:06.923Z,100707.16
2023-05-11T12:28:34.487Z,100712.69
2023-05-11T12:31:02.249Z,100706.44
2023-05-11T12:33:30.081Z,100708.97
2023-05-11T12:35:58.102Z,100707.25
2023-05-11T12:38:25.662Z,100703.44
2023-05-11T12:40:53.454Z,100711.31
2023-05-11T12:43:21.965Z,100710.84
2023-05-11T12:45:49.461Z,100703.66
2023-05-11T12:48:17.568Z,100704.59
2023-05-11T12:50:46.102Z,100707.50
2023-05-11T12:53:16.221Z,100717.44
2023-05-11T12:55:45.520Z,100715.94
2023-05-11T12:58:15.158Z,100719.16
2023-05-11T13:00:54.467Z,100726.06
2023-05-11T13:03:26.180Z,100716.81
2023-05-11T13:06:24.104Z,100714.69
2023-05-11T13:08:52.855Z,100719.06
2023-05-11T13:11:25.958Z,100722.03
2023-05-11T13:13:59.886Z,100715.56
2023-05-11T13:16:32.379Z,100723.66
2023-05-11T13:19:01.257Z,100726.91
2023-05-11T13:21:29.931Z,100722.03
2023-05-11T13:23:57.851Z,100722.47
2023-05-11T13:26:26.466Z,100719.00
2023-05-11T13:29:08.720Z,100716.25
2023-05-11T13:31:51.421Z,100719.22
2023-05-11T13:34:19.844Z,100713.53
2023-05-11T13:36:48.443Z,100716.09
2023-05-11T13:39:16.243Z,100712.81
2023-05-11T13:41:43.987Z,100715.81
2023-05-11T13:44:11.603Z,100722.56
2023-05-11T13:46:39.398Z,100716.19
2023-05-11T13:49:07.149Z,100712.72
2023-05-11T13:51:35.947Z,100717.31
2023-05-11T13:54:03.655Z,100715.13
2023-05-11T13:56:31.577Z,100720.56
2023-05-11T13:59:00.084Z,100718.94
2023-05-11T14:01:27.949Z,100714.53
2023-05-11T14:03:55.842Z,100715.00
2023-05-11T14:06:24.604Z,100706.81
2023-05-11T14:08:52.512Z,100718.72
2023-05-11T14:11:21.128Z,100722.41
2023-05-11T14:13:48.702Z,100714.78
2023-05-11T14:16:16.200Z,100720.22
2023-05-11T14:18:44.398Z,100707.38
2023-05-11T14:21:12.175Z,100712.69
2023-05-11T14:23:44.948Z,100706.00
2023-05-11T14:26:17.688Z,100706.69
2023-05-11T14:28:45.219Z,100714.66
2023-05-11T14:31:13.353Z,100709.13
2023-05-11T14:33:40.965Z,100708.53
2023-05-11T14:36:08.733Z,100710.72
2023-05-11T14:38:36.463Z,100712.91
2023-05-11T14:41:04.042Z,100712.34
2023-05-11T14:43:32.718Z,100714.22
2023-05-11T14:46:00.228Z,100702.56
2023-05-11T14:48:27.799Z,100708.69
2023-05-11T14:50:55.362Z,100707.28
2023-05-11T14:53:23.171Z,100706.94
2023-05-11T14:55:50.860Z,100715.72
2023-05-11T14:58:18.399Z,100712.50
2023-05-11T15:00:45.950Z,100712.97
2023-05-11T15:03:13.507Z,100714.22
2023-05-11T15:05:41.521Z,100709.94
2023-05-11T15:08:21.700Z,100710.88
2023-05-11T15:10:53.760Z,100703.03
2023-05-11T15:13:22.415Z,100705.00
2023-05-11T15:15:50.320Z,100701.19
2023-05-11T15:18:18.262Z,100695.84
2023-05-11T15:20:46.276Z,100704.53
2023-05-11T15:23:17.198Z,100701.84
2023-05-11T15:25:45.332Z,100702.81
2023-05-11T15:28:13.278Z,100703.25
2023-05-11T15:30:41.771Z,100718.28
2023-05-11T15:33:10.208Z,100708.34
2023-05-11T15:35:38.166Z,100715.50
2023-05-11T15:38:06.220Z,100723.31
2023-05-11T15:40:34.101Z,100718.47
2023-05-11T15:43:01.850Z,100722.28
2023-05-11T15:45:29.535Z,100719.59
2023-05-11T15:47:58.285Z,100720.84
2023-05-11T15:50:26.019Z,100721.63
2023-05-11T15:52:53.485Z,100722.25
2023-05-11T15:55:21.176Z,100728.25
2023-05-11T15:57:48.817Z,100718.56
2023-05-11T16:00:16.586Z,100725.72
2023-05-11T16:02:45.991Z,100726.59
2023-05-11T16:05:13.997Z,100725.88
2023-05-11T16:07:41.640Z,100723.78
2023-05-11T16:10:09.929Z,100729.06
2023-05-11T16:12:37.525Z,100734.94
2023-05-11T16:15:06.331Z,100724.28
2023-05-11T16:17:34.854Z,100725.69
2023-05-11T16:20:03.513Z,100734.19
2023-05-11T16:22:31.401Z,100736.13
2023-05-11T16:24:58.959Z,100732.75
2023-05-11T16:27:26.532Z,100735.06
2023-05-11T16:29:54.072Z,100736.88
2023-05-11T16:32:21.632Z,100736.88
2023-05-11T16:34:49.588Z,100737.91
2023-05-11T16:37:17.064Z,100743.28
2023-05-11T16:39:44.912Z,100743.59
2023-05-11T16:42:12.449Z,100751.09
2023-05-11T16:44:39.966Z,100745.09
2023-05-11T16:47:07.543Z,100746.72
2023-05-11T16:49:35.172Z,100752.13
2023-05-11T16:52:02.633Z,100753.59
2023-05-11T16:54:30.576Z,100750.22
2023-05-11T16:56:58.252Z,100753.63
2023-05-11T16:59:25.846Z,100756.25
2023-05-11T17:01:53.556Z,100763.28
2023-05-11T17:04:21.232Z,100758.41
2023-05-11T17:06:49.170Z,100759.88
2023-05-11T17:09:16.777Z,100770.81
2023-05-11T17:11:44.463Z,100765.13
2023-05-11T17:14:12.047Z,100768.88
2023-05-11T17:16:39.645Z,100775.06
2023-05-11T17:19:08.418Z,100769.72
2023-05-11T17:21:36.552Z,100773.81
2023-05-11T17:24:04.392Z,100775.28
2023-05-11T17:26:43.395Z,100769.59
2023-05-11T17:29:16.555Z,100780.50
2023-05-11T17:31:48.828Z,100781.97
2023-05-11T17:34:20.988Z,100775.97
2023-05-11T17:36:49.661Z,100786.84
2023-05-11T17:39:17.353Z,100786.06
2023-05-11T17:41:44.926Z,100789.97
2023-05-11T17:44:13.358Z,100787.19
2023-05-11T17:46:40.873Z,100792.56
2023-05-11T17:49:08.909Z,100792.88
2023-05-11T17:51:36.517Z,100792.88
2023-05-11T17:54:04.022Z,100793.22
2023-05-11T17:56:32.177Z,100804.09
2023-05-11T17:58:59.901Z,100801.66
2023-05-11T18:01:27.803Z,100808.84
2023-05-11T18:03:57.596Z,100806.41
2023-05-11T18:06:25.644Z,100814.19
2023-05-11T18:08:53.245Z,100818.41
2023-05-11T18:11:21.328Z,100808.84
2023-05-11T18:13:49.363Z,100809.16
2023-05-11T18:16:17.368Z,100807.53
2023-05-11T18:18:45.123Z,100815.34
2023-05-11T18:21:12.828Z,100814.06
2023-05-11T18:23:40.408Z,100806.41
2023-05-11T18:26:08.348Z,100812.53
2023-05-11T18:28:35.935Z,100820.69
2023-05-11T18:31:03.471Z,100810.59
2023-05-11T18:33:31.328Z,100816.78
2023-05-11T18:35:59.008Z,100819.72
2023-05-11T18:38:27.179Z,100822.63
2023-05-11T18:40:56.326Z,100821.63
2023-05-11T18:43:24.046Z,100824.56
2023-05-11T18:45:52.869Z,100818.72
2023-05-11T18:48:21.485Z,100820.81
2023-05-11T18:50:56.278Z,100820.66
2023-05-11T18:53:24.082Z,100823.38
2023-05-11T18:55:53.638Z,100827.13
2023-05-11T18:58:21.523Z,100825.47
2023-05-11T19:00:52.389Z,100825.47
2023-05-11T19:03:20.757Z,100819.81
2023-05-11T19:05:48.872Z,100818.03
2023-05-11T19:08:16.735Z,100819.78
2023-05-11T19:10:45.556Z,100823.50
2023-05-11T19:13:13.497Z,100819.28
2023-05-11T19:15:40.990Z,100836.28
2023-05-11T19:18:08.914Z,100836.13
2023-05-11T19:20:38.101Z,100839.34
2023-05-11T19:23:06.761Z,100833.94
2023-05-11T19:25:34.421Z,100829.41
2023-05-11T19:28:01.941Z,100833.09
2023-05-11T19:30:29.528Z,100830.44
2023-05-11T19:32:57.159Z,100835.81
2023-05-11T19:35:24.934Z,100834.50
2023-05-11T19:37:52.457Z,100835.44
2023-05-11T19:42:52.994Z,100839.78
2023-05-11T19:45:20.569Z,100832.13
2023-05-11T19:47:48.381Z,100832.78
2023-05-11T19:50:18.143Z,100838.59
2023-05-11T19:52:46.544Z,100830.66
2023-05-11T19:55:14.692Z,100832.09
2023-05-11T19:57:42.657Z,100831.28
2023-05-11T20:00:11.847Z,100836.78
2023-05-11T20:02:39.609Z,100835.16
2023-05-11T20:05:07.575Z,100830.78
2023-05-11T20:07:35.522Z,100837.44
2023-05-11T20:10:04.097Z,100835.78
2023-05-11T20:12:32.142Z,100839.19
2023-05-11T20:15:01.087Z,100835.44
2023-05-11T20:17:29.032Z,100838.31
2023-05-11T20:19:56.555Z,100837.31
2023-05-11T20:22:24.370Z,100837.94
2023-05-11T20:24:51.831Z,100834.69
2023-05-11T20:27:19.581Z,100832.06
2023-05-11T20:29:47.120Z,100842.88
2023-05-11T20:32:15.179Z,100837.50
2023-05-11T20:34:42.793Z,100841.22
2023-05-11T20:37:10.956Z,100846.50
2023-05-11T20:39:38.745Z,100838.06
2023-05-11T20:42:06.372Z,100827.06
2023-05-11T20:44:33.885Z,100840.00
2023-05-11T20:47:01.700Z,100839.19
2023-05-11T20:49:38.202Z,100838.69
2023-05-11T20:52:07.597Z,100847.25
2023-05-11T20:54:35.916Z,100847.06
2023-05-11T20:57:08.253Z,100847.88
2023-05-11T21:02:06.633Z,100847.06
2023-05-11T21:04:36.150Z,100848.69
2023-05-11T21:07:03.672Z,100844.31
2023-05-11T21:09:31.436Z,100852.56
2023-05-11T21:11:59.174Z,100847.06
2023-05-11T21:14:26.800Z,100849.31
2023-05-11T21:16:54.273Z,100848.50
2023-05-11T21:19:21.775Z,100846.06
2023-05-11T21:21:49.798Z,100845.03
2023-05-11T21:24:17.300Z,100850.06
2023-05-11T21:26:47.957Z,100845.69
2023-05-11T21:29:15.847Z,100839.16
2023-05-11T21:31:43.402Z,100848.03
2023-05-11T21:34:11.890Z,100852.41
2023-05-11T21:36:41.350Z,100850.78
2023-05-11T21:39:09.033Z,100846.91
2023-05-11T21:41:36.730Z,100848.03
2023-05-11T21:44:04.274Z,100846.53
2023-05-11T21:46:32.646Z,100845.53
2023-05-11T21:49:00.265Z,100842.25
2023-05-11T21:51:28.024Z,100847.22
2023-05-11T21:53:55.738Z,100848.97
2023-05-11T21:56:23.626Z,100846.34
2023-05-11T21:58:51.153Z,100848.88
2023-05-11T22:01:18.947Z,100856.13
2023-05-11T22:03:46.559Z,100848.50
2023-05-11T22:06:14.099Z,100844.72
2023-05-11T22:08:41.602Z,100852.78
2023-05-11T22:11:10.066Z,100861.03
2023-05-11T22:13:37.676Z,100851.78
2023-05-11T22:16:05.936Z,100854.28
2023-05-11T22:18:33.968Z,100855.72
2023-05-11T22:21:01.619Z,100852.47
2023-05-11T22:23:29.590Z,100849.19
2023-05-11T22:25:57.071Z,100845.47
2023-05-11T22:28:24.707Z,100849.63
2023-05-11T22:30:52.253Z,100861.25
2023-05-11T22:33:19.769Z,100847.28
2023-05-11T22:35:47.571Z,100845.75
2023-05-11T22:38:15.399Z,100848.00
2023-05-11T22:40:42.981Z,100850.75
2023-05-11T22:43:10.548Z,100852.97
2023-05-11T22:45:38.132Z,100848.13
2023-05-11T22:48:06.756Z,100855.34
2023-05-11T22:50:34.299Z,100851.88
2023-05-11T22:53:01.841Z,100858.47
2023-05-11T22:55:29.395Z,100858.25
2023-05-11T22:57:57.098Z,100857.75
2023-05-11T23:00:25.474Z,100852.84
2023-05-11T23:02:52.987Z,100852.34
2023-05-11T23:05:20.561Z,100855.91
2023-05-11T23:07:48.256Z,100856.72
2023-05-11T23:10:16.828Z,100858.44
2023-05-11T23:12:44.820Z,100855.50
2023-05-11T23:15:12.287Z,100854.47
2023-05-11T23:17:39.971Z,100852.03
2023-05-11T23:20:07.905Z,100856.19
2023-05-11T23:22:35.489Z,100864.72
2023-05-11T23:25:03.050Z,100854.34
2023-05-11T23:27:30.719Z,100855.47
2023-05-11T23:29:58.190Z,100854.97
2023-05-11T23:32:25.780Z,100856.88
2023-05-11T23:34:53.636Z,100854.44
2023-05-11T23:37:22.322Z,100862.19
2023-05-11T23:39:49.719Z,100858.41
2023-05-11T23:42:17.373Z,100855.66
2023-05-11T23:44:44.890Z,100852.38
2023-05-11T23:47:12.455Z,100854.63
2023-05-11T23:49:40.130Z,100857.38
2023-05-11T23:52:07.699Z,100865.59
2023-05-11T23:54:35.344Z,100858.50
2023-05-11T23:57:02.852Z,100857.16
2023-05-11T23:59:31.581Z,100863.44
